Time;durP1;ratioP1;P1;durP2;ratioP2;P2;SDS_P1;SDS_P2;PMS_P1;PMS_P2;Temp;Humidity;BMP_temperature;BMP_pressure;BME280_temperature;BME280_humidity;BME280_pressure;Samples;Min_cycle;Max_cycle;Signal;HPM_P1;HPM_P2
2022/06/20 00:00:38;;;;;;;20.33;9.60;;;24.20;1.00;;;;;;5050460;28;20401;-53
2022/06/20 00:03:05;;;;;;;21.50;10.77;;;24.10;1.00;;;;;;5049812;28;20410;-53
2022/06/20 00:05:34;;;;;;;18.45;9.88;;;24.10;1.00;;;;;;5047754;28;20463;-54
2022/06/20 00:08:00;;;;;;;20.17;10.00;;;24.10;1.00;;;;;;5047432;28;20390;-53
2022/06/20 00:10:30;;;;;;;20.83;10.35;;;24.00;1.00;;;;;;5049472;28;20458;-54
2022/06/20 00:12:58;;;;;;;21.65;10.23;;;24.00;1.00;;;;;;5049491;28;20416;-53
2022/06/20 00:15:29;;;;;;;19.55;9.95;;;24.00;1.00;;;;;;5050341;28;20468;-58
2022/06/20 00:17:56;;;;;;;18.73;10.40;;;24.00;1.00;;;;;;5049253;28;20401;-53
2022/06/20 00:20:22;;;;;;;19.13;9.90;;;24.00;1.00;;;;;;5050119;28;20887;-53
2022/06/20 00:22:48;;;;;;;18.27;9.68;;;24.10;1.00;;;;;;5049055;28;20398;-53
2022/06/20 00:25:16;;;;;;;18.73;10.00;;;24.20;1.00;;;;;;5045398;28;20429;-54
2022/06/20 00:27:42;;;;;;;17.40;10.30;;;24.20;1.00;;;;;;5040140;28;20744;-53
2022/06/20 00:30:11;;;;;;;18.27;9.80;;;24.20;1.00;;;;;;5050721;28;20390;-54
2022/06/20 00:32:37;;;;;;;18.77;10.23;;;24.10;1.00;;;;;;5049595;28;20393;-60
2022/06/20 00:35:03;;;;;;;23.25;10.50;;;24.10;1.00;;;;;;5032208;28;20397;-54
2022/06/20 00:37:29;;;;;;;19.10;10.90;;;24.00;1.00;;;;;;5032017;28;20394;-54
2022/06/20 00:39:55;;;;;;;21.63;9.97;;;24.00;1.00;;;;;;5049554;28;20392;-55
2022/06/20 00:42:20;;;;;;;19.05;10.40;;;24.00;1.00;;;;;;5049872;28;20811;-54
2022/06/20 00:45:06;;;;;;;21.17;10.25;;;23.90;1.00;;;;;;5031367;28;20390;-53
2022/06/20 00:47:34;;;;;;;22.17;9.70;;;23.80;1.00;;;;;;5045058;28;20493;-53
2022/06/20 00:50:06;;;;;;;16.75;10.00;;;23.80;1.00;;;;;;5049354;28;20381;-54
2022/06/20 00:52:54;;;;;;;20.38;10.18;;;23.70;1.00;;;;;;5049539;28;20858;-56
2022/06/20 00:55:30;;;;;;;21.05;9.90;;;23.60;1.00;;;;;;5049930;28;20488;-56
2022/06/20 00:58:00;;;;;;;19.65;10.90;;;23.60;15.90;;;;;;5042945;28;20601;-55
2022/06/20 01:00:30;;;;;;;22.43;10.70;;;23.60;1.00;;;;;;5049984;28;20467;-56
2022/06/20 01:03:03;;;;;;;18.90;10.38;;;23.60;1.00;;;;;;5048542;28;20680;-55
2022/06/20 01:05:56;;;;;;;17.40;10.20;;;23.70;1.00;;;;;;5049189;28;20397;-53
2022/06/20 01:08:23;;;;;;;19.00;10.50;;;23.80;1.00;;;;;;5049928;28;20377;-54
2022/06/20 01:10:58;;;;;;;22.90;10.40;;;23.80;55.40;;;;;;5048513;28;20398;-54
2022/06/20 01:13:25;;;;;;;21.10;10.65;;;23.90;99.90;;;;;;5049547;28;20409;-56
2022/06/20 01:15:55;;;;;;;24.23;11.30;;;23.60;42.50;;;;;;5048535;28;20386;-56
2022/06/20 01:18:30;;;;;;;19.65;11.32;;;23.60;1.00;;;;;;5049704;28;20386;-60
2022/06/20 01:20:57;;;;;;;21.77;10.90;;;23.60;1.00;;;;;;5041574;28;20445;-54
2022/06/20 01:23:26;;;;;;;24.50;12.10;;;23.60;99.90;;;;;;5049048;28;20463;-54
2022/06/20 01:25:59;;;;;;;20.13;11.50;;;23.70;99.90;;;;;;5048733;28;20381;-53
2022/06/20 01:28:33;;;;;;;20.70;11.20;;;23.70;1.00;;;;;;5049648;28;20425;-53
2022/06/20 01:30:59;;;;;;;22.92;12.00;;;23.70;99.90;;;;;;5048451;28;20401;-53
2022/06/20 01:33:25;;;;;;;20.80;11.75;;;23.80;1.00;;;;;;5050280;28;20393;-54
2022/06/20 01:38:40;;;;;;;19.70;11.48;;;23.60;1.00;;;;;;5048687;28;20415;-60
2022/06/20 01:43:53;;;;;;;23.98;12.70;;;23.30;1.00;;;;;;5042149;28;20380;-55
2022/06/20 01:46:25;;;;;;;21.13;11.80;;;23.20;1.00;;;;;;5046035;28;20472;-55
2022/06/20 01:48:53;;;;;;;22.92;12.45;;;22.90;1.00;;;;;;5042531;28;20404;-54
2022/06/20 01:51:24;;;;;;;19.40;12.30;;;22.90;1.00;;;;;;5049120;28;20472;-54
2022/06/20 01:53:52;;;;;;;21.42;12.48;;;22.90;1.00;;;;;;5030208;28;20405;-53
2022/06/20 01:56:19;;;;;;;19.40;11.90;;;22.90;99.90;;;;;;5048345;28;21205;-53
2022/06/20 01:58:59;;;;;;;23.38;12.00;;;22.80;99.90;;;;;;5048136;28;20377;-54
2022/06/20 02:01:27;;;;;;;21.38;12.20;;;23.00;99.90;;;;;;5049328;28;20460;-54
2022/06/20 02:03:53;;;;;;;21.52;12.90;;;23.20;1.00;;;;;;5051001;28;20401;-54
2022/06/20 02:06:19;;;;;;;21.67;12.50;;;23.10;1.00;;;;;;5048579;28;20400;-54
2022/06/20 02:08:50;;;;;;;21.73;12.55;;;23.10;1.00;;;;;;5047991;28;20500;-54
2022/06/20 02:11:24;;;;;;;19.17;12.00;;;22.80;1.00;;;;;;5048635;28;20405;-53
2022/06/20 02:13:55;;;;;;;21.33;12.98;;;22.90;99.90;;;;;;5048196;28;20403;-54
2022/06/20 02:16:22;;;;;;;24.17;13.07;;;23.00;99.90;;;;;;5030737;28;20390;-53
2022/06/20 02:18:51;;;;;;;18.48;11.82;;;23.20;1.00;;;;;;5046184;28;20476;-57
2022/06/20 02:21:22;;;;;;;26.30;12.40;;;23.30;1.00;;;;;;5046767;28;20413;-54
2022/06/20 02:23:51;;;;;;;18.92;11.70;;;23.50;1.00;;;;;;5047211;28;20476;-54
2022/06/20 02:26:18;;;;;;;19.27;12.27;;;23.70;99.90;;;;;;5048593;28;20397;-54
2022/06/20 02:28:50;;;;;;;25.25;13.18;;;23.70;99.90;;;;;;5047388;28;20400;-54
2022/06/20 02:31:17;;;;;;;18.88;12.82;;;23.70;30.80;;;;;;5048918;28;20393;-55
2022/06/20 02:33:46;;;;;;;17.95;11.60;;;23.60;99.90;;;;;;5055159;28;20388;-55
2022/06/20 02:36:12;;;;;;;21.75;12.77;;;23.60;99.90;;;;;;5053159;28;20394;-56
2022/06/20 02:38:38;;;;;;;21.10;12.97;;;23.50;1.00;;;;;;5052445;28;20492;-59
2022/06/20 02:41:05;;;;;;;22.20;12.50;;;23.50;99.90;;;;;;5051797;28;20425;-54
2022/06/20 02:43:43;;;;;;;22.10;12.15;;;23.40;1.00;;;;;;5052438;28;20385;-55
2022/06/20 02:46:12;;;;;;;20.63;11.90;;;23.40;1.00;;;;;;5046077;28;20913;-54
2022/06/20 02:48:42;;;;;;;22.50;14.13;;;23.40;99.90;;;;;;5033877;28;20410;-61
2022/06/20 02:51:15;;;;;;;22.08;13.20;;;23.30;99.90;;;;;;5045965;28;20483;-53
2022/06/20 02:53:59;;;;;;;20.02;12.90;;;23.30;1.00;;;;;;5050970;28;20961;-55
2022/06/20 02:56:28;;;;;;;25.30;14.00;;;23.30;99.90;;;;;;5052196;28;20436;-54
2022/06/20 02:59:02;;;;;;;22.77;14.32;;;23.20;1.00;;;;;;5051526;28;20419;-53
2022/06/20 03:01:47;;;;;;;24.35;15.00;;;23.00;1.00;;;;;;5051575;28;20453;-54
2022/06/20 03:04:13;;;;;;;20.75;14.75;;;22.90;99.90;;;;;;5047721;28;20394;-54
2022/06/20 03:06:48;;;;;;;29.23;15.35;;;22.90;99.90;;;;;;5047176;28;20400;-61
2022/06/20 03:09:17;;;;;;;23.45;13.98;;;22.70;1.00;;;;;;5046630;28;20862;-54
2022/06/20 03:11:43;;;;;;;22.25;15.18;;;22.70;1.00;;;;;;5051239;28;20425;-54
2022/06/20 03:14:14;;;;;;;24.93;13.97;;;22.70;1.00;;;;;;5051548;28;20878;-54
2022/06/20 03:16:40;;;;;;;26.50;15.48;;;22.70;1.00;;;;;;5051361;28;20428;-60
2022/06/20 03:19:14;;;;;;;22.02;13.70;;;22.90;1.00;;;;;;5051797;28;20397;-53
2022/06/20 03:21:42;;;;;;;20.20;13.40;;;23.10;1.00;;;;;;5051109;28;20453;-60
2022/06/20 03:24:15;;;;;;;26.00;13.88;;;23.10;99.90;;;;;;5051336;28;20424;-53
2022/06/20 03:26:41;;;;;;;18.87;11.53;;;23.00;49.70;;;;;;5051139;28;20496;-60
2022/06/20 03:29:12;;;;;;;20.58;12.07;;;23.10;1.00;;;;;;5051648;28;20938;-53
2022/06/20 03:31:38;;;;;;;21.67;12.75;;;23.40;1.00;;;;;;5047608;28;20492;-64
2022/06/20 03:34:03;;;;;;;20.40;12.45;;;24.30;1.00;;;;;;5052752;28;20536;-53
2022/06/20 03:36:30;;;;;;;22.50;12.80;;;23.50;1.00;;;;;;5050660;28;20792;-53
2022/06/20 03:38:56;;;;;;;21.48;13.05;;;23.20;99.90;;;;;;5049926;28;20409;-54
2022/06/20 03:41:26;;;;;;;28.52;14.02;;;22.90;1.00;;;;;;5050660;28;20879;-54
2022/06/20 03:44:12;;;;;;;24.27;12.52;;;22.70;24.70;;;;;;5048897;28;20461;-55
2022/06/20 03:47:02;;;;;;;22.05;13.20;;;22.40;99.90;;;;;;5049376;28;20424;-59
2022/06/20 03:49:35;;;;;;;21.43;13.03;;;22.20;99.90;;;;;;5047480;28;20405;-53
2022/06/20 03:52:07;;;;;;;29.38;13.98;;;21.90;1.00;;;;;;5049037;28;20409;-53
2022/06/20 03:55:03;;;;;;;20.92;11.82;;;21.80;1.00;;;;;;5050083;28;20405;-53
2022/06/20 03:58:13;;;;;;;20.83;13.15;;;21.60;1.00;;;;;;5045018;28;20436;-53
2022/06/20 04:01:01;;;;;;;22.20;11.75;;;21.50;1.00;;;;;;5048852;28;20421;-59
2022/06/20 04:03:49;;;;;;;19.85;11.77;;;21.50;1.00;;;;;;5047499;28;20740;-53
2022/06/20 04:06:27;;;;;;;24.48;12.00;;;21.20;1.00;;;;;;5045159;28;20405;-51
2022/06/20 04:12:22;;;;;;;18.50;9.77;;;20.90;1.00;;;;;;5047603;28;20479;-54
2022/06/20 04:14:59;;;;;;;18.83;10.60;;;20.80;1.00;;;;;;5049309;28;20397;-52
2022/06/20 04:20:40;;;;;;;19.57;9.03;;;20.90;1.00;;;;;;5047766;28;20956;-51
2022/06/20 04:23:14;;;;;;;16.98;9.55;;;20.80;1.00;;;;;;5044711;28;20436;-53
2022/06/20 04:25:47;;;;;;;17.05;9.55;;;20.90;1.00;;;;;;5049410;28;20393;-60
2022/06/20 04:28:18;;;;;;;17.67;9.98;;;20.90;1.00;;;;;;5046732;28;20469;-55
2022/06/20 04:30:53;;;;;;;17.02;10.25;;;20.90;1.00;;;;;;5048019;28;20401;-54
2022/06/20 04:34:01;;;;;;;17.52;9.80;;;20.90;1.00;;;;;;5048113;28;20417;-53
2022/06/20 04:36:42;;;;;;;17.55;9.52;;;20.90;1.00;;;;;;5045065;28;20407;-54
2022/06/20 04:39:26;;;;;;;20.17;9.43;;;20.80;1.00;;;;;;5048629;28;20393;-53
2022/06/20 04:42:09;;;;;;;16.15;8.20;;;20.70;1.00;;;;;;5043383;28;20770;-56
2022/06/20 04:44:44;;;;;;;20.37;8.70;;;20.60;1.00;;;;;;5050057;28;20501;-53
2022/06/20 04:48:00;;;;;;;18.42;9.15;;;20.50;1.00;;;;;;5047266;28;20396;-53
2022/06/20 04:50:28;;;;;;;18.73;8.73;;;20.50;1.00;;;;;;4959606;28;20428;-53
2022/06/20 04:53:00;;;;;;;15.93;9.10;;;20.60;1.00;;;;;;5033169;28;20410;-53
2022/06/20 04:55:28;;;;;;;16.30;8.98;;;20.60;1.00;;;;;;5049194;28;20875;-53
2022/06/20 04:57:58;;;;;;;15.88;8.30;;;20.70;1.00;;;;;;5048942;28;20381;-53
2022/06/20 05:00:32;;;;;;;15.73;8.93;;;20.70;1.00;;;;;;5047915;28;20467;-55
2022/06/20 05:02:58;;;;;;;15.30;8.30;;;20.80;1.00;;;;;;5046510;28;20424;-56
2022/06/20 05:05:27;;;;;;;18.42;9.15;;;20.80;1.00;;;;;;5046837;28;20433;-54
2022/06/20 05:07:53;;;;;;;16.33;9.00;;;20.80;1.00;;;;;;5048053;28;20393;-54
2022/06/20 05:10:25;;;;;;;16.83;8.27;;;20.80;1.00;;;;;;5048739;28;20394;-54
2022/06/20 05:13:07;;;;;;;20.45;8.18;;;20.80;1.00;;;;;;5048671;28;20389;-59
2022/06/20 05:15:41;;;;;;;18.08;8.38;;;20.90;99.90;;;;;;5044994;28;20413;-57
2022/06/20 05:18:25;;;;;;;13.13;7.40;;;21.00;99.90;;;;;;5049249;28;20397;-54
2022/06/20 05:20:58;;;;;;;16.05;8.15;;;21.10;99.90;;;;;;5047694;28;20409;-55
2022/06/20 05:23:38;;;;;;;15.07;7.40;;;21.10;99.90;;;;;;5047806;28;20421;-54
2022/06/20 05:26:06;;;;;;;12.35;6.90;;;21.10;1.00;;;;;;5042450;28;20389;-54
2022/06/20 05:28:33;;;;;;;16.00;7.20;;;21.10;1.00;;;;;;5047296;28;20444;-57
2022/06/20 05:31:01;;;;;;;12.95;6.90;;;21.30;1.00;;;;;;5050714;28;20401;-54
2022/06/20 05:33:49;;;;;;;16.65;7.13;;;21.20;99.90;;;;;;5048414;28;20394;-54
2022/06/20 05:36:43;;;;;;;16.05;7.82;;;21.10;1.00;;;;;;5045866;28;20870;-54
2022/06/20 05:39:21;;;;;;;15.40;7.90;;;21.20;1.00;;;;;;5042786;28;20385;-55
2022/06/20 05:41:48;;;;;;;16.45;7.32;;;21.20;1.00;;;;;;5044491;28;20478;-55
2022/06/20 05:44:14;;;;;;;14.63;7.30;;;21.40;1.00;;;;;;5048864;28;20928;-55
2022/06/20 05:46:55;;;;;;;13.25;7.40;;;21.50;99.90;;;;;;5047525;28;20405;-56
2022/06/20 05:49:29;;;;;;;15.18;7.50;;;21.50;99.90;;;;;;5049049;28;20476;-59
2022/06/20 05:51:56;;;;;;;15.80;7.35;;;21.60;99.90;;;;;;5047993;28;20382;-55
2022/06/20 05:54:32;;;;;;;14.50;7.20;;;21.60;99.90;;;;;;5049122;28;20516;-54
2022/06/20 05:57:20;;;;;;;13.88;7.45;;;21.40;99.90;;;;;;5047907;28;20774;-54
2022/06/20 05:59:55;;;;;;;13.93;7.25;;;21.40;1.00;;;;;;5047319;28;20401;-55
2022/06/20 06:02:35;;;;;;;15.47;7.37;;;21.50;1.00;;;;;;5048569;28;20842;-54
2022/06/20 06:05:13;;;;;;;15.30;8.37;;;21.40;99.90;;;;;;5042647;28;20394;-55
2022/06/20 06:07:47;;;;;;;13.53;7.40;;;21.50;99.90;;;;;;5049348;28;20417;-55
2022/06/20 06:10:19;;;;;;;17.20;7.55;;;21.60;1.00;;;;;;5051502;28;20417;-55
2022/06/20 06:12:52;;;;;;;14.75;6.95;;;22.00;1.00;;;;;;5051648;28;20472;-55
2022/06/20 06:15:41;;;;;;;17.63;7.10;;;22.20;1.00;;;;;;5051264;28;20401;-55
2022/06/20 06:18:12;;;;;;;16.20;7.27;;;22.30;99.90;;;;;;5052717;28;20443;-55
2022/06/20 06:20:44;;;;;;;14.38;6.72;;;22.50;99.90;;;;;;5052379;28;20965;-55
2022/06/20 06:23:12;;;;;;;18.08;7.32;;;22.60;1.00;;;;;;5022228;28;20407;-55
2022/06/20 06:25:42;;;;;;;17.00;7.50;;;22.60;20.80;;;;;;5052253;28;20385;-55
2022/06/20 06:28:16;;;;;;;16.02;7.60;;;22.80;1.00;;;;;;5052382;28;20387;-55
2022/06/20 06:30:50;;;;;;;13.52;6.85;;;23.30;99.90;;;;;;5050510;28;20471;-57
2022/06/20 06:33:31;;;;;;;15.38;7.38;;;23.60;1.00;;;;;;5046949;28;20431;-55
2022/06/20 06:36:03;;;;;;;16.15;7.32;;;23.70;99.90;;;;;;5045917;28;20893;-55
2022/06/20 06:38:38;;;;;;;16.20;7.40;;;23.50;99.90;;;;;;5051415;28;20401;-55
2022/06/20 06:41:10;;;;;;;14.43;7.03;;;23.50;99.90;;;;;;5050357;28;20588;-56
2022/06/20 06:43:43;;;;;;;14.32;6.70;;;24.60;99.90;;;;;;5049674;28;20407;-55
2022/06/20 06:46:27;;;;;;;15.10;7.35;;;26.20;1.00;;;;;;5052076;28;20385;-56
2022/06/20 06:49:19;;;;;;;14.17;6.77;;;27.10;1.00;;;;;;5045671;28;20377;-56
2022/06/20 06:52:17;;;;;;;15.90;7.32;;;28.70;99.90;;;;;;5051162;28;20377;-56
2022/06/20 06:54:46;;;;;;;12.30;7.70;;;29.60;99.90;;;;;;5052290;28;20389;-56
2022/06/20 06:57:42;;;;;;;16.15;7.20;;;29.60;99.90;;;;;;5051956;28;20425;-55
2022/06/20 07:00:08;;;;;;;16.33;7.50;;;30.10;99.90;;;;;;5049680;28;20397;-55
2022/06/20 07:02:42;;;;;;;16.33;8.15;;;29.90;99.90;;;;;;5051729;28;20413;-55
2022/06/20 07:05:36;;;;;;;12.02;6.60;;;31.20;99.90;;;;;;5055310;28;20392;-56
2022/06/20 07:08:11;;;;;;;15.50;7.20;;;32.00;99.90;;;;;;5047375;28;20416;-58
2022/06/20 07:10:46;;;;;;;14.93;7.47;;;32.90;99.90;;;;;;5051927;28;20403;-56
2022/06/20 07:13:44;;;;;;;15.80;7.50;;;32.20;99.90;;;;;;5051841;28;20393;-56
2022/06/20 07:16:35;;;;;;;15.85;7.90;;;31.90;99.90;;;;;;5046397;28;20447;-58
2022/06/20 07:19:05;;;;;;;15.93;7.60;;;32.20;99.90;;;;;;5049567;28;20400;-58
2022/06/20 07:21:32;;;;;;;16.77;7.68;;;32.80;99.90;;;;;;5051177;28;20410;-58
2022/06/20 07:24:05;;;;;;;17.58;9.20;;;33.40;99.90;;;;;;5050501;28;20512;-56
2022/06/20 07:26:43;;;;;;;17.38;8.07;;;33.60;99.90;;;;;;5051647;28;20386;-56
2022/06/20 07:29:22;;;;;;;16.25;7.95;;;33.80;99.90;;;;;;5045771;28;20373;-56
2022/06/20 07:32:18;;;;;;;12.50;7.70;;;34.30;99.90;;;;;;5050492;28;20728;-56
2022/06/20 07:34:58;;;;;;;14.10;6.70;;;34.30;99.90;;;;;;5050753;28;20467;-57
2022/06/20 07:37:34;;;;;;;13.23;7.80;;;34.60;99.90;;;;;;5046006;28;20448;-56
2022/06/20 07:40:09;;;;;;;18.45;6.80;;;34.90;99.90;;;;;;5050279;28;20833;-57
2022/06/20 07:42:52;;;;;;;12.77;7.47;;;34.90;99.90;;;;;;5051249;28;20886;-57
2022/06/20 07:45:22;;;;;;;13.80;6.90;;;33.70;99.90;;;;;;5051187;28;20391;-57
2022/06/20 07:47:50;;;;;;;14.05;7.32;;;34.10;99.90;;;;;;5050441;28;20847;-57
2022/06/20 07:50:30;;;;;;;13.40;7.35;;;34.30;99.90;;;;;;5051204;28;21029;-57
2022/06/20 07:53:06;;;;;;;12.00;7.30;;;34.10;99.90;;;;;;5049870;28;20397;-57
2022/06/20 07:55:34;;;;;;;12.97;7.30;;;34.90;99.90;;;;;;5050846;28;20392;-57
2022/06/20 07:58:09;;;;;;;14.45;7.28;;;35.90;99.90;;;;;;5050416;28;20849;-56
2022/06/20 08:00:42;;;;;;;13.77;6.43;;;35.20;99.90;;;;;;5051260;28;20500;-56
2022/06/20 08:03:12;;;;;;;15.23;7.30;;;35.50;99.90;;;;;;5050120;28;20380;-57
2022/06/20 08:05:48;;;;;;;15.13;6.90;;;35.40;99.90;;;;;;5048736;28;20378;-56
2022/06/20 08:08:42;;;;;;;17.03;7.33;;;35.50;99.90;;;;;;5051084;28;20414;-56
2022/06/20 08:11:40;;;;;;;13.30;6.65;;;35.50;99.90;;;;;;5046271;28;20442;-57
2022/06/20 08:14:06;;;;;;;14.45;7.53;;;36.10;99.90;;;;;;5048990;28;20397;-56
2022/06/20 08:16:34;;;;;;;12.93;7.47;;;36.80;99.90;;;;;;5050531;28;20905;-56
2022/06/20 08:19:00;;;;;;;14.00;6.75;;;36.80;99.90;;;;;;5049663;28;20390;-56
2022/06/20 08:21:41;;;;;;;13.07;6.30;;;35.20;99.90;;;;;;5050345;28;20828;-56
2022/06/20 08:24:19;;;;;;;15.40;7.00;;;34.80;99.90;;;;;;5049172;28;20519;-56
2022/06/20 08:27:06;;;;;;;11.37;6.47;;;35.30;99.90;;;;;;5049757;28;20875;-58
2022/06/20 08:29:41;;;;;;;15.73;7.28;;;36.00;99.90;;;;;;5050523;28;20785;-57
2022/06/20 08:32:18;;;;;;;13.27;6.60;;;37.50;99.90;;;;;;5032528;28;20409;-57
2022/06/20 08:34:52;;;;;;;16.45;8.63;;;38.10;99.90;;;;;;5049726;28;20385;-57
2022/06/20 08:37:36;;;;;;;13.27;7.15;;;35.90;99.90;;;;;;5050444;28;20377;-56
2022/06/20 08:40:26;;;;;;;13.73;8.40;;;34.60;99.90;;;;;;5049766;28;20460;-56
2022/06/20 08:43:29;;;;;;;14.97;8.77;;;34.10;99.90;;;;;;5043656;28;20389;-56
2022/06/20 08:46:10;;;;;;;15.65;8.55;;;34.60;99.90;;;;;;5024961;28;20396;-56
2022/06/20 08:48:57;;;;;;;14.15;8.85;;;35.60;99.90;;;;;;5049947;28;20413;-57
2022/06/20 08:51:39;;;;;;;15.90;7.95;;;36.30;99.90;;;;;;5049919;28;20897;-56
2022/06/20 08:54:33;;;;;;;13.63;8.95;;;36.50;99.90;;;;;;5048748;28;20389;-56
2022/06/20 08:57:11;;;;;;;15.07;9.30;;;35.30;99.90;;;;;;5048991;28;20386;-56
2022/06/20 09:00:09;;;;;;;21.05;9.32;;;35.30;99.90;;;;;;5049992;28;20932;-56
2022/06/20 09:03:18;;;;;;;21.10;8.98;;;34.60;99.90;;;;;;5049479;28;20405;-56
2022/06/20 09:06:18;;;;;;;17.50;9.30;;;34.80;99.90;;;;;;4942948;29;20465;-57
2022/06/20 09:09:14;;;;;;;15.48;9.00;;;35.20;99.90;;;;;;5048087;28;20444;-56
2022/06/20 09:12:05;;;;;;;17.03;9.43;;;35.70;99.90;;;;;;5048279;28;20802;-57
2022/06/20 09:15:04;;;;;;;14.35;9.70;;;36.00;99.90;;;;;;5049904;28;20455;-56
2022/06/20 09:18:02;;;;;;;16.77;10.48;;;35.30;99.90;;;;;;5045331;28;20381;-57
2022/06/20 09:21:12;;;;;;;17.45;8.85;;;35.70;99.90;;;;;;5049515;28;20386;-57
2022/06/20 09:23:41;;;;;;;16.05;8.27;;;36.10;99.90;;;;;;5027229;28;20416;-57
2022/06/20 09:26:37;;;;;;;12.82;8.35;;;36.10;99.90;;;;;;5048616;28;20396;-57
2022/06/20 09:29:09;;;;;;;17.00;9.50;;;36.20;99.90;;;;;;5044994;28;20996;-57
2022/06/20 09:31:56;;;;;;;16.73;9.20;;;35.70;99.90;;;;;;5049753;28;20373;-57
2022/06/20 09:34:37;;;;;;;22.85;9.57;;;35.80;99.90;;;;;;5053285;28;20442;-57
2022/06/20 09:37:02;;;;;;;16.20;9.40;;;35.90;99.90;;;;;;5043185;28;20431;-57
2022/06/20 09:40:10;;;;;;;17.40;9.30;;;35.50;99.90;;;;;;5049283;28;20408;-56
2022/06/20 09:43:00;;;;;;;15.75;8.65;;;35.70;99.90;;;;;;5048432;28;20441;-56
2022/06/20 09:45:34;;;;;;;12.50;8.45;;;35.50;99.90;;;;;;5049133;28;20405;-56
2022/06/20 09:48:11;;;;;;;12.50;8.98;;;35.10;99.90;;;;;;5048260;28;20386;-56
2022/06/20 09:50:56;;;;;;;19.52;8.68;;;35.30;99.90;;;;;;5048812;28;20421;-57
2022/06/20 09:53:48;;;;;;;15.18;8.52;;;35.40;99.90;;;;;;5048750;28;20496;-57
2022/06/20 09:56:31;;;;;;;14.40;8.52;;;36.20;99.90;;;;;;5048696;28;20385;-56
2022/06/20 09:59:21;;;;;;;13.80;9.10;;;34.50;99.90;;;;;;5047982;28;20456;-57
2022/06/20 10:02:09;;;;;;;14.15;8.73;;;35.20;99.90;;;;;;5044532;28;20417;-58
2022/06/20 10:04:41;;;;;;;14.98;9.02;;;36.20;99.90;;;;;;5031212;28;20738;-57
2022/06/20 10:07:15;;;;;;;16.20;8.57;;;36.80;99.90;;;;;;5048106;28;20385;-57
2022/06/20 10:09:55;;;;;;;13.80;8.98;;;36.40;99.90;;;;;;5048816;28;20735;-56
2022/06/20 10:12:37;;;;;;;15.32;8.07;;;35.30;99.90;;;;;;5049061;28;20462;-56
2022/06/20 10:15:20;;;;;;;16.17;9.60;;;34.30;99.90;;;;;;5048288;28;20480;-56
2022/06/20 10:18:06;;;;;;;15.45;8.40;;;34.20;99.90;;;;;;5048253;28;20370;-57
2022/06/20 10:20:44;;;;;;;11.55;7.82;;;34.00;99.90;;;;;;5043730;28;20374;-56
2022/06/20 10:23:16;;;;;;;13.70;8.40;;;33.90;99.90;;;;;;5048112;28;20492;-56
2022/06/20 10:25:56;;;;;;;14.80;8.95;;;33.30;99.90;;;;;;5047178;28;20751;-56
2022/06/20 10:28:27;;;;;;;15.95;7.90;;;32.70;99.90;;;;;;5049028;28;20397;-56
2022/06/20 10:31:12;;;;;;;12.80;7.77;;;32.10;99.90;;;;;;5047954;28;20531;-56
2022/06/20 10:34:05;;;;;;;15.25;8.63;;;32.00;99.90;;;;;;5046150;28;20416;-56
2022/06/20 10:36:57;;;;;;;15.48;8.27;;;32.20;99.90;;;;;;5048555;28;20440;-56
2022/06/20 10:39:53;;;;;;;16.20;8.85;;;31.90;99.90;;;;;;5043619;28;20392;-56
2022/06/20 10:42:58;;;;;;;12.23;7.80;;;31.10;99.90;;;;;;5048762;28;20486;-57
2022/06/20 10:45:24;;;;;;;14.02;8.40;;;30.80;99.90;;;;;;5046238;28;20385;-56
2022/06/20 10:48:26;;;;;;;16.47;8.30;;;30.40;99.90;;;;;;5047527;28;20386;-57
2022/06/20 10:51:19;;;;;;;15.77;8.52;;;29.90;99.90;;;;;;5047862;28;20382;-57
2022/06/20 10:53:56;;;;;;;19.67;8.70;;;29.60;99.90;;;;;;5049866;28;20402;-57
2022/06/20 10:56:42;;;;;;;14.20;8.07;;;29.10;99.90;;;;;;5051989;28;20397;-57
2022/06/20 10:59:32;;;;;;;13.88;8.45;;;29.30;99.90;;;;;;5005996;28;20409;-57
2022/06/20 11:02:07;;;;;;;15.85;8.27;;;29.30;99.90;;;;;;5051267;28;20463;-57
2022/06/20 11:04:47;;;;;;;15.82;8.40;;;29.30;99.90;;;;;;5057468;28;20728;-57
2022/06/20 11:07:37;;;;;;;12.13;7.97;;;29.10;99.90;;;;;;5046505;28;20381;-57
2022/06/20 11:10:15;;;;;;;14.25;7.82;;;29.00;99.90;;;;;;5051206;28;20381;-57
2022/06/20 11:13:12;;;;;;;19.63;8.15;;;28.90;99.90;;;;;;5051682;28;20386;-57
2022/06/20 11:16:11;;;;;;;14.68;8.00;;;29.40;99.90;;;;;;5046807;28;20401;-57
2022/06/20 11:18:55;;;;;;;16.83;7.63;;;29.90;99.90;;;;;;5045681;28;20402;-57
2022/06/20 11:21:54;;;;;;;13.73;7.20;;;29.60;99.90;;;;;;5051619;28;20416;-57
2022/06/20 11:25:02;;;;;;;13.90;7.97;;;29.30;99.90;;;;;;5045304;28;20420;-57
2022/06/20 11:28:13;;;;;;;14.93;7.20;;;28.60;99.90;;;;;;5051669;28;20381;-57
2022/06/20 11:30:41;;;;;;;15.35;6.82;;;28.50;99.90;;;;;;5050403;28;20373;-57
2022/06/20 11:33:07;;;;;;;15.00;6.88;;;28.30;99.90;;;;;;5050905;28;20680;-56
2022/06/20 11:35:42;;;;;;;14.60;7.00;;;28.30;99.90;;;;;;5053102;28;20886;-57
2022/06/20 11:38:27;;;;;;;17.35;7.50;;;28.90;99.90;;;;;;5049596;28;20381;-56
2022/06/20 11:40:58;;;;;;;21.33;6.93;;;28.70;99.90;;;;;;5050683;28;20405;-56
2022/06/20 11:43:49;;;;;;;15.87;6.43;;;28.70;99.90;;;;;;5051049;28;20381;-56
2022/06/20 11:46:29;;;;;;;12.35;7.47;;;28.40;99.90;;;;;;5050725;28;20415;-56
2022/06/20 11:49:21;;;;;;;16.23;7.57;;;28.40;99.90;;;;;;5043968;28;20427;-57
2022/06/20 11:52:01;;;;;;;16.80;7.23;;;28.00;99.90;;;;;;5050714;28;20476;-57
2022/06/20 11:54:44;;;;;;;16.67;7.90;;;27.50;99.90;;;;;;5051139;28;20432;-56
2022/06/20 11:57:36;;;;;;;14.80;7.80;;;27.50;99.90;;;;;;5044517;28;20424;-56
2022/06/20 12:00:01;;;;;;;13.27;6.68;;;27.30;99.90;;;;;;5035767;28;20456;-57
2022/06/20 12:02:55;;;;;;;14.37;7.50;;;27.70;99.90;;;;;;5050823;28;20989;-56
2022/06/20 12:05:37;;;;;;;14.35;7.72;;;27.50;99.90;;;;;;5054393;28;20735;-56
2022/06/20 12:08:15;;;;;;;13.43;7.22;;;27.80;99.90;;;;;;5050068;28;20429;-56
2022/06/20 12:11:06;;;;;;;17.23;6.82;;;28.40;99.90;;;;;;5050839;28;20381;-56
2022/06/20 12:13:46;;;;;;;14.38;7.05;;;28.60;99.90;;;;;;5044657;28;20392;-57
2022/06/20 12:16:21;;;;;;;10.43;5.72;;;29.00;99.90;;;;;;5050343;28;20389;-56
2022/06/20 12:24:43;;;;;;;15.45;6.25;;;28.40;99.90;;;;;;5050038;28;20408;-56
2022/06/20 12:27:16;;;;;;;15.25;6.22;;;27.80;99.90;;;;;;5049573;28;20373;-56
2022/06/20 12:29:44;;;;;;;12.18;6.07;;;27.90;99.90;;;;;;5050455;28;20393;-56
2022/06/20 12:32:28;;;;;;;13.63;6.40;;;28.10;99.90;;;;;;5049945;28;20412;-56
2022/06/20 12:35:30;;;;;;;14.73;6.32;;;28.50;99.90;;;;;;5049873;28;20384;-57
2022/06/20 12:38:10;;;;;;;13.68;6.03;;;28.00;99.90;;;;;;5018020;28;20393;-56
2022/06/20 12:40:46;;;;;;;14.98;6.32;;;27.50;99.90;;;;;;5044197;28;20878;-56
2022/06/20 12:43:37;;;;;;;12.45;6.15;;;27.30;99.90;;;;;;5049729;28;20863;-56
2022/06/20 12:46:12;;;;;;;11.07;5.40;;;27.30;99.90;;;;;;5013304;28;20455;-56
2022/06/20 12:49:03;;;;;;;15.40;6.77;;;27.60;99.90;;;;;;5050232;28;20390;-56
2022/06/20 12:51:55;;;;;;;12.93;7.30;;;28.10;99.90;;;;;;5046097;28;20408;-56
2022/06/20 12:54:39;;;;;;;16.17;6.70;;;28.60;99.90;;;;;;5050116;28;20397;-56
2022/06/20 12:57:11;;;;;;;12.52;7.15;;;28.50;99.90;;;;;;5049299;28;20481;-56
2022/06/20 13:00:00;;;;;;;11.90;7.30;;;27.90;99.90;;;;;;5049719;28;20943;-58
2022/06/20 13:02:35;;;;;;;11.68;6.70;;;28.00;99.90;;;;;;5050061;28;20500;-56
2022/06/20 13:05:24;;;;;;;13.45;6.85;;;28.30;99.90;;;;;;5051954;28;20385;-57
2022/06/20 13:08:01;;;;;;;20.85;7.18;;;28.70;99.90;;;;;;5043872;28;20462;-57
2022/06/20 13:11:00;;;;;;;13.73;6.90;;;28.40;99.90;;;;;;5049693;28;20460;-56
2022/06/20 13:13:41;;;;;;;10.23;6.30;;;28.70;99.90;;;;;;5049711;28;20397;-57
2022/06/20 13:16:09;;;;;;;11.73;6.40;;;28.70;99.90;;;;;;5048856;28;20853;-56
2022/06/20 13:18:39;;;;;;;10.27;6.47;;;28.70;99.90;;;;;;5048859;28;20841;-56
2022/06/20 13:21:33;;;;;;;12.77;6.80;;;28.60;99.90;;;;;;5048746;28;20412;-56
2022/06/20 13:24:07;;;;;;;12.05;6.20;;;28.00;99.90;;;;;;5034056;28;20574;-56
2022/06/20 13:26:39;;;;;;;11.47;5.40;;;27.60;99.90;;;;;;5049683;28;20389;-56
2022/06/20 13:29:05;;;;;;;10.80;5.50;;;27.50;99.90;;;;;;5048800;28;20392;-56
2022/06/20 13:31:53;;;;;;;12.40;5.40;;;27.70;99.90;;;;;;5049523;28;20390;-56
2022/06/20 13:34:27;;;;;;;12.07;5.10;;;27.40;99.90;;;;;;5055317;28;20389;-56
2022/06/20 13:37:11;;;;;;;11.00;5.72;;;26.60;99.90;;;;;;5048419;28;20378;-57
2022/06/20 13:39:44;;;;;;;10.50;5.10;;;26.90;99.90;;;;;;5043656;28;20894;-56
2022/06/20 13:42:23;;;;;;;10.10;5.80;;;26.90;99.90;;;;;;5048354;28;20397;-56
2022/06/20 13:45:09;;;;;;;12.65;6.40;;;26.30;99.90;;;;;;5048653;28;20382;-57
2022/06/20 13:47:51;;;;;;;14.15;6.03;;;25.80;99.90;;;;;;5048833;28;20465;-54
2022/06/20 13:50:51;;;;;;;11.48;5.95;;;25.70;99.90;;;;;;5049080;28;20407;-54